sensor_id;sensor_type;location;lat;lon;timestamp;P1;durP1;ratioP1;P2;durP2;ratioP2
76745;SDS011;65671;49.976;20.038;2023-04-03T00:01:00;6.07;;;3.95;;
76745;SDS011;65671;49.976;20.038;2023-04-03T00:03:26;4.70;;;3.38;;
76745;SDS011;65671;49.976;20.038;2023-04-03T00:08:17;6.67;;;3.37;;
76745;SDS011;65671;49.976;20.038;2023-04-03T00:13:08;5.43;;;3.37;;
76745;SDS011;65671;49.976;20.038;2023-04-03T00:15:35;4.95;;;3.17;;
76745;SDS011;65671;49.976;20.038;2023-04-03T00:18:01;4.32;;;3.10;;
76745;SDS011;65671;49.976;20.038;2023-04-03T00:20:29;6.50;;;3.85;;
76745;SDS011;65671;49.976;20.038;2023-04-03T00:22:55;5.35;;;3.72;;
76745;SDS011;65671;49.976;20.038;2023-04-03T00:27:46;7.80;;;4.30;;
76745;SDS011;65671;49.976;20.038;2023-04-03T00:32:39;7.10;;;4.28;;
76745;SDS011;65671;49.976;20.038;2023-04-03T00:37:30;9.15;;;4.85;;
76745;SDS011;65671;49.976;20.038;2023-04-03T00:42:21;5.35;;;3.67;;
76745;SDS011;65671;49.976;20.038;2023-04-03T00:47:15;7.60;;;4.40;;
76745;SDS011;65671;49.976;20.038;2023-04-03T00:49:43;6.65;;;4.13;;
76745;SDS011;65671;49.976;20.038;2023-04-03T00:52:12;6.35;;;4.25;;
76745;SDS011;65671;49.976;20.038;2023-04-03T00:54:41;7.65;;;4.85;;
76745;SDS011;65671;49.976;20.038;2023-04-03T00:57:09;6.38;;;4.25;;
76745;SDS011;65671;49.976;20.038;2023-04-03T00:59:38;6.82;;;4.38;;
76745;SDS011;65671;49.976;20.038;2023-04-03T01:02:09;5.45;;;3.13;;
76745;SDS011;65671;49.976;20.038;2023-04-03T01:07:03;5.00;;;3.22;;
76745;SDS011;65671;49.976;20.038;2023-04-03T01:09:33;5.85;;;3.40;;
76745;SDS011;65671;49.976;20.038;2023-04-03T01:12:19;5.65;;;3.92;;
76745;SDS011;65671;49.976;20.038;2023-04-03T01:14:48;7.05;;;4.00;;
76745;SDS011;65671;49.976;20.038;2023-04-03T01:20:13;6.55;;;3.88;;
76745;SDS011;65671;49.976;20.038;2023-04-03T01:25:24;6.00;;;4.00;;
76745;SDS011;65671;49.976;20.038;2023-04-03T01:27:49;6.88;;;4.20;;
76745;SDS011;65671;49.976;20.038;2023-04-03T01:30:16;5.28;;;3.30;;
76745;SDS011;65671;49.976;20.038;2023-04-03T01:32:45;5.57;;;3.60;;
76745;SDS011;65671;49.976;20.038;2023-04-03T01:35:11;6.43;;;4.30;;
76745;SDS011;65671;49.976;20.038;2023-04-03T01:40:02;3.88;;;2.92;;
76745;SDS011;65671;49.976;20.038;2023-04-03T01:42:29;5.47;;;3.58;;
76745;SDS011;65671;49.976;20.038;2023-04-03T01:44:55;6.45;;;3.17;;
76745;SDS011;65671;49.976;20.038;2023-04-03T01:47:21;5.55;;;3.50;;
76745;SDS011;65671;49.976;20.038;2023-04-03T01:52:12;4.33;;;2.90;;
76745;SDS011;65671;49.976;20.038;2023-04-03T01:57:03;5.40;;;3.65;;
76745;SDS011;65671;49.976;20.038;2023-04-03T02:01:54;5.32;;;3.20;;
76745;SDS011;65671;49.976;20.038;2023-04-03T02:06:45;4.15;;;2.67;;
76745;SDS011;65671;49.976;20.038;2023-04-03T02:11:37;5.20;;;3.50;;
76745;SDS011;65671;49.976;20.038;2023-04-03T02:16:29;6.35;;;4.13;;
76745;SDS011;65671;49.976;20.038;2023-04-03T02:18:55;3.53;;;3.05;;
76745;SDS011;65671;49.976;20.038;2023-04-03T02:21:21;6.65;;;3.72;;
76745;SDS011;65671;49.976;20.038;2023-04-03T02:23:47;6.43;;;3.85;;
76745;SDS011;65671;49.976;20.038;2023-04-03T02:26:13;6.35;;;3.92;;
76745;SDS011;65671;49.976;20.038;2023-04-03T02:28:40;6.07;;;3.92;;
76745;SDS011;65671;49.976;20.038;2023-04-03T02:31:06;6.10;;;3.85;;
76745;SDS011;65671;49.976;20.038;2023-04-03T02:33:33;5.45;;;3.97;;
76745;SDS011;65671;49.976;20.038;2023-04-03T02:36:02;6.85;;;3.65;;
76745;SDS011;65671;49.976;20.038;2023-04-03T02:38:31;5.28;;;3.40;;
76745;SDS011;65671;49.976;20.038;2023-04-03T02:41:04;6.03;;;3.85;;
76745;SDS011;65671;49.976;20.038;2023-04-03T02:43:32;8.52;;;3.92;;
76745;SDS011;65671;49.976;20.038;2023-04-03T02:48:24;4.65;;;2.78;;
76745;SDS011;65671;49.976;20.038;2023-04-03T02:53:15;2.83;;;2.33;;
76745;SDS011;65671;49.976;20.038;2023-04-03T02:55:41;4.43;;;3.08;;
76745;SDS011;65671;49.976;20.038;2023-04-03T03:00:32;3.78;;;2.38;;
76745;SDS011;65671;49.976;20.038;2023-04-03T03:05:23;4.00;;;2.63;;
76745;SDS011;65671;49.976;20.038;2023-04-03T03:07:49;3.42;;;2.22;;
76745;SDS011;65671;49.976;20.038;2023-04-03T03:12:40;3.72;;;2.28;;
76745;SDS011;65671;49.976;20.038;2023-04-03T03:17:31;4.30;;;2.63;;
76745;SDS011;65671;49.976;20.038;2023-04-03T03:22:23;3.30;;;2.50;;
76745;SDS011;65671;49.976;20.038;2023-04-03T03:27:13;4.30;;;2.15;;
76745;SDS011;65671;49.976;20.038;2023-04-03T03:29:41;4.38;;;3.38;;
76745;SDS011;65671;49.976;20.038;2023-04-03T03:32:07;3.78;;;2.65;;
76745;SDS011;65671;49.976;20.038;2023-04-03T03:34:32;3.47;;;2.50;;
76745;SDS011;65671;49.976;20.038;2023-04-03T03:36:58;4.32;;;2.58;;
76745;SDS011;65671;49.976;20.038;2023-04-03T03:39:23;4.45;;;3.00;;
76745;SDS011;65671;49.976;20.038;2023-04-03T03:41:49;3.65;;;2.75;;
76745;SDS011;65671;49.976;20.038;2023-04-03T03:44:15;6.07;;;2.92;;
76745;SDS011;65671;49.976;20.038;2023-04-03T03:49:06;3.88;;;2.80;;
76745;SDS011;65671;49.976;20.038;2023-04-03T03:53:57;3.88;;;2.63;;
76745;SDS011;65671;49.976;20.038;2023-04-03T03:58:48;5.90;;;3.75;;
76745;SDS011;65671;49.976;20.038;2023-04-03T04:01:14;5.78;;;3.53;;
76745;SDS011;65671;49.976;20.038;2023-04-03T04:03:42;4.90;;;3.40;;
76745;SDS011;65671;49.976;20.038;2023-04-03T04:06:07;5.30;;;3.33;;
76745;SDS011;65671;49.976;20.038;2023-04-03T04:10:58;4.40;;;2.13;;
76745;SDS011;65671;49.976;20.038;2023-04-03T04:13:24;5.47;;;3.10;;
76745;SDS011;65671;49.976;20.038;2023-04-03T04:18:15;3.63;;;2.85;;
76745;SDS011;65671;49.976;20.038;2023-04-03T04:20:40;4.50;;;2.90;;
76745;SDS011;65671;49.976;20.038;2023-04-03T04:23:06;4.57;;;2.97;;
76745;SDS011;65671;49.976;20.038;2023-04-03T04:27:57;3.90;;;2.92;;
76745;SDS011;65671;49.976;20.038;2023-04-03T04:32:48;4.77;;;2.90;;
76745;SDS011;65671;49.976;20.038;2023-04-03T04:35:14;4.10;;;3.03;;
76745;SDS011;65671;49.976;20.038;2023-04-03T04:37:40;5.22;;;3.30;;
76745;SDS011;65671;49.976;20.038;2023-04-03T04:40:06;4.90;;;3.05;;
76745;SDS011;65671;49.976;20.038;2023-04-03T04:42:32;3.72;;;2.97;;
76745;SDS011;65671;49.976;20.038;2023-04-03T04:44:58;3.72;;;2.55;;
76745;SDS011;65671;49.976;20.038;2023-04-03T04:47:23;4.95;;;3.28;;
76745;SDS011;65671;49.976;20.038;2023-04-03T04:49:49;4.30;;;3.28;;
76745;SDS011;65671;49.976;20.038;2023-04-03T04:52:15;5.90;;;3.10;;
76745;SDS011;65671;49.976;20.038;2023-04-03T04:54:41;5.80;;;3.38;;
76745;SDS011;65671;49.976;20.038;2023-04-03T04:59:32;3.35;;;2.10;;
76745;SDS011;65671;49.976;20.038;2023-04-03T05:01:58;8.00;;;3.28;;
76745;SDS011;65671;49.976;20.038;2023-04-03T05:04:23;4.57;;;3.75;;
76745;SDS011;65671;49.976;20.038;2023-04-03T05:06:49;4.13;;;3.03;;
76745;SDS011;65671;49.976;20.038;2023-04-03T05:11:40;4.70;;;3.20;;
76745;SDS011;65671;49.976;20.038;2023-04-03T05:14:05;8.73;;;3.55;;
76745;SDS011;65671;49.976;20.038;2023-04-03T05:18:57;4.95;;;3.28;;
76745;SDS011;65671;49.976;20.038;2023-04-03T05:21:23;5.72;;;3.65;;
76745;SDS011;65671;49.976;20.038;2023-04-03T05:23:51;3.22;;;2.78;;
76745;SDS011;65671;49.976;20.038;2023-04-03T05:26:17;5.70;;;3.25;;
76745;SDS011;65671;49.976;20.038;2023-04-03T05:28:43;5.60;;;2.63;;
76745;SDS011;65671;49.976;20.038;2023-04-03T05:31:08;4.78;;;3.50;;
76745;SDS011;65671;49.976;20.038;2023-04-03T05:33:34;5.80;;;3.45;;
76745;SDS011;65671;49.976;20.038;2023-04-03T05:36:03;4.63;;;2.72;;
76745;SDS011;65671;49.976;20.038;2023-04-03T05:38:29;4.68;;;3.38;;
76745;SDS011;65671;49.976;20.038;2023-04-03T05:40:55;5.10;;;3.83;;
76745;SDS011;65671;49.976;20.038;2023-04-03T05:43:21;6.65;;;3.40;;
76745;SDS011;65671;49.976;20.038;2023-04-03T05:48:13;6.45;;;4.07;;
76745;SDS011;65671;49.976;20.038;2023-04-03T05:53:06;3.83;;;2.83;;
76745;SDS011;65671;49.976;20.038;2023-04-03T05:55:38;5.47;;;3.65;;
76745;SDS011;65671;49.976;20.038;2023-04-03T05:58:03;7.25;;;4.70;;
76745;SDS011;65671;49.976;20.038;2023-04-03T06:00:29;4.20;;;3.42;;
76745;SDS011;65671;49.976;20.038;2023-04-03T06:02:55;5.50;;;3.60;;
76745;SDS011;65671;49.976;20.038;2023-04-03T06:05:20;7.13;;;3.85;;
76745;SDS011;65671;49.976;20.038;2023-04-03T06:07:46;5.03;;;3.15;;
76745;SDS011;65671;49.976;20.038;2023-04-03T06:10:11;4.93;;;3.67;;
76745;SDS011;65671;49.976;20.038;2023-04-03T06:12:38;5.40;;;3.35;;
76745;SDS011;65671;49.976;20.038;2023-04-03T06:15:04;6.13;;;3.58;;
76745;SDS011;65671;49.976;20.038;2023-04-03T06:17:30;7.00;;;3.83;;
76745;SDS011;65671;49.976;20.038;2023-04-03T06:19:56;5.78;;;3.20;;
76745;SDS011;65671;49.976;20.038;2023-04-03T06:22:23;9.63;;;3.67;;
76745;SDS011;65671;49.976;20.038;2023-04-03T06:24:50;5.20;;;3.63;;
76745;SDS011;65671;49.976;20.038;2023-04-03T06:27:16;5.75;;;3.70;;
76745;SDS011;65671;49.976;20.038;2023-04-03T06:29:42;3.65;;;2.58;;
76745;SDS011;65671;49.976;20.038;2023-04-03T06:32:08;6.28;;;3.30;;
76745;SDS011;65671;49.976;20.038;2023-04-03T06:34:33;9.73;;;3.92;;
76745;SDS011;65671;49.976;20.038;2023-04-03T06:36:59;6.32;;;3.45;;
76745;SDS011;65671;49.976;20.038;2023-04-03T06:39:25;4.95;;;3.20;;
76745;SDS011;65671;49.976;20.038;2023-04-03T06:41:50;5.93;;;3.22;;
76745;SDS011;65671;49.976;20.038;2023-04-03T06:44:16;4.30;;;2.63;;
76745;SDS011;65671;49.976;20.038;2023-04-03T06:46:42;4.28;;;3.30;;
76745;SDS011;65671;49.976;20.038;2023-04-03T06:49:09;6.85;;;3.53;;
76745;SDS011;65671;49.976;20.038;2023-04-03T06:51:35;6.53;;;2.75;;
76745;SDS011;65671;49.976;20.038;2023-04-03T06:54:01;8.45;;;3.30;;
76745;SDS011;65671;49.976;20.038;2023-04-03T06:56:28;5.88;;;2.58;;
76745;SDS011;65671;49.976;20.038;2023-04-03T06:58:54;3.42;;;2.38;;
76745;SDS011;65671;49.976;20.038;2023-04-03T07:01:22;3.47;;;2.22;;
76745;SDS011;65671;49.976;20.038;2023-04-03T07:03:47;3.17;;;2.05;;
76745;SDS011;65671;49.976;20.038;2023-04-03T07:06:14;4.65;;;1.90;;
76745;SDS011;65671;49.976;20.038;2023-04-03T07:08:41;4.22;;;2.08;;
76745;SDS011;65671;49.976;20.038;2023-04-03T07:11:09;6.60;;;2.60;;
76745;SDS011;65671;49.976;20.038;2023-04-03T07:13:37;3.85;;;2.00;;
76745;SDS011;65671;49.976;20.038;2023-04-03T07:16:02;5.10;;;2.33;;
76745;SDS011;65671;49.976;20.038;2023-04-03T07:18:30;4.80;;;1.90;;
76745;SDS011;65671;49.976;20.038;2023-04-03T07:20:56;4.88;;;2.38;;
76745;SDS011;65671;49.976;20.038;2023-04-03T07:23:22;3.72;;;1.98;;
76745;SDS011;65671;49.976;20.038;2023-04-03T07:25:49;4.30;;;2.03;;
76745;SDS011;65671;49.976;20.038;2023-04-03T07:28:16;6.15;;;2.33;;
76745;SDS011;65671;49.976;20.038;2023-04-03T07:30:44;5.63;;;2.60;;
76745;SDS011;65671;49.976;20.038;2023-04-03T07:33:11;4.53;;;2.05;;
76745;SDS011;65671;49.976;20.038;2023-04-03T07:35:38;4.90;;;2.60;;
76745;SDS011;65671;49.976;20.038;2023-04-03T07:38:04;3.78;;;2.17;;
76745;SDS011;65671;49.976;20.038;2023-04-03T07:42:56;2.42;;;1.23;;
76745;SDS011;65671;49.976;20.038;2023-04-03T07:47:48;4.63;;;2.05;;
76745;SDS011;65671;49.976;20.038;2023-04-03T07:50:14;4.55;;;2.10;;
76745;SDS011;65671;49.976;20.038;2023-04-03T07:52:40;2.33;;;1.35;;
76745;SDS011;65671;49.976;20.038;2023-04-03T07:57:32;3.08;;;1.90;;
76745;SDS011;65671;49.976;20.038;2023-04-03T08:02:23;4.70;;;1.98;;
76745;SDS011;65671;49.976;20.038;2023-04-03T08:07:14;3.53;;;1.75;;
76745;SDS011;65671;49.976;20.038;2023-04-03T08:09:40;6.00;;;2.45;;
76745;SDS011;65671;49.976;20.038;2023-04-03T08:14:32;3.88;;;1.95;;
76745;SDS011;65671;49.976;20.038;2023-04-03T08:17:00;4.00;;;2.33;;
76745;SDS011;65671;49.976;20.038;2023-04-03T08:19:26;2.88;;;1.80;;
76745;SDS011;65671;49.976;20.038;2023-04-03T08:21:52;3.58;;;2.25;;
76745;SDS011;65671;49.976;20.038;2023-04-03T08:24:19;3.80;;;2.05;;
76745;SDS011;65671;49.976;20.038;2023-04-03T08:26:45;4.90;;;2.35;;
76745;SDS011;65671;49.976;20.038;2023-04-03T08:31:36;5.53;;;1.98;;
76745;SDS011;65671;49.976;20.038;2023-04-03T08:36:27;2.93;;;2.07;;
76745;SDS011;65671;49.976;20.038;2023-04-03T08:38:54;7.55;;;2.15;;
76745;SDS011;65671;49.976;20.038;2023-04-03T08:49:26;3.65;;;2.65;;
76745;SDS011;65671;49.976;20.038;2023-04-03T08:51:56;3.65;;;2.20;;
76745;SDS011;65671;49.976;20.038;2023-04-03T08:54:30;7.03;;;2.42;;
76745;SDS011;65671;49.976;20.038;2023-04-03T08:57:00;5.32;;;2.67;;
76745;SDS011;65671;49.976;20.038;2023-04-03T08:59:29;9.40;;;1.90;;
76745;SDS011;65671;49.976;20.038;2023-04-03T09:01:59;6.18;;;2.47;;
76745;SDS011;65671;49.976;20.038;2023-04-03T09:04:31;4.75;;;2.50;;
76745;SDS011;65671;49.976;20.038;2023-04-03T09:07:12;6.72;;;2.10;;
76745;SDS011;65671;49.976;20.038;2023-04-03T09:09:48;4.15;;;2.03;;
76745;SDS011;65671;49.976;20.038;2023-04-03T09:12:21;4.28;;;2.53;;
76745;SDS011;65671;49.976;20.038;2023-04-03T09:17:41;10.15;;;3.25;;
76745;SDS011;65671;49.976;20.038;2023-04-03T09:23:29;5.28;;;2.30;;
76745;SDS011;65671;49.976;20.038;2023-04-03T09:26:03;4.45;;;2.20;;
76745;SDS011;65671;49.976;20.038;2023-04-03T09:28:35;5.55;;;2.72;;
76745;SDS011;65671;49.976;20.038;2023-04-03T09:31:11;7.30;;;3.75;;
76745;SDS011;65671;49.976;20.038;2023-04-03T09:33:43;5.63;;;2.78;;
76745;SDS011;65671;49.976;20.038;2023-04-03T09:36:10;5.07;;;2.90;;
76745;SDS011;65671;49.976;20.038;2023-04-03T09:38:36;4.68;;;2.63;;
76745;SDS011;65671;49.976;20.038;2023-04-03T09:43:33;6.45;;;2.63;;
76745;SDS011;65671;49.976;20.038;2023-04-03T09:46:23;2.90;;;1.90;;
76745;SDS011;65671;49.976;20.038;2023-04-03T09:49:04;6.47;;;2.92;;
76745;SDS011;65671;49.976;20.038;2023-04-03T09:51:31;3.35;;;1.95;;
76745;SDS011;65671;49.976;20.038;2023-04-03T09:53:57;3.58;;;2.67;;
76745;SDS011;65671;49.976;20.038;2023-04-03T09:56:27;6.07;;;2.63;;
76745;SDS011;65671;49.976;20.038;2023-04-03T10:01:39;4.47;;;2.35;;
76745;SDS011;65671;49.976;20.038;2023-04-03T10:04:14;2.85;;;2.20;;
76745;SDS011;65671;49.976;20.038;2023-04-03T10:09:24;3.30;;;2.53;;
76745;SDS011;65671;49.976;20.038;2023-04-03T10:14:54;3.92;;;1.98;;
76745;SDS011;65671;49.976;20.038;2023-04-03T10:17:27;4.38;;;2.67;;
76745;SDS011;65671;49.976;20.038;2023-04-03T10:20:21;5.78;;;2.92;;
76745;SDS011;65671;49.976;20.038;2023-04-03T10:23:17;4.80;;;2.72;;
76745;SDS011;65671;49.976;20.038;2023-04-03T10:31:20;4.22;;;2.33;;
76745;SDS011;65671;49.976;20.038;2023-04-03T10:33:59;4.43;;;2.55;;
76745;SDS011;65671;49.976;20.038;2023-04-03T10:42:07;4.05;;;2.30;;
76745;SDS011;65671;49.976;20.038;2023-04-03T10:53:16;4.93;;;2.80;;
76745;SDS011;65671;49.976;20.038;2023-04-03T10:56:01;3.33;;;1.75;;
76745;SDS011;65671;49.976;20.038;2023-04-03T10:58:38;4.35;;;2.35;;
76745;SDS011;65671;49.976;20.038;2023-04-03T11:01:14;3.97;;;2.63;;
76745;SDS011;65671;49.976;20.038;2023-04-03T11:03:46;3.65;;;2.65;;
76745;SDS011;65671;49.976;20.038;2023-04-03T11:06:15;6.30;;;3.17;;
76745;SDS011;65671;49.976;20.038;2023-04-03T11:11:35;5.10;;;3.42;;
76745;SDS011;65671;49.976;20.038;2023-04-03T11:16:46;4.05;;;2.40;;
76745;SDS011;65671;49.976;20.038;2023-04-03T11:24:20;4.32;;;2.65;;
76745;SDS011;65671;49.976;20.038;2023-04-03T11:26:50;4.57;;;2.25;;
76745;SDS011;65671;49.976;20.038;2023-04-03T11:29:22;5.13;;;2.95;;
76745;SDS011;65671;49.976;20.038;2023-04-03T11:34:37;5.45;;;3.10;;
76745;SDS011;65671;49.976;20.038;2023-04-03T11:37:22;4.00;;;2.63;;
76745;SDS011;65671;49.976;20.038;2023-04-03T11:39:57;3.30;;;2.67;;
76745;SDS011;65671;49.976;20.038;2023-04-03T11:42:34;4.85;;;2.40;;
76745;SDS011;65671;49.976;20.038;2023-04-03T11:47:54;5.00;;;2.72;;
76745;SDS011;65671;49.976;20.038;2023-04-03T11:50:37;4.15;;;2.95;;
76745;SDS011;65671;49.976;20.038;2023-04-03T12:13:42;7.63;;;2.95;;
76745;SDS011;65671;49.976;20.038;2023-04-03T12:40:09;3.50;;;2.05;;
76745;SDS011;65671;49.976;20.038;2023-04-03T12:42:59;5.65;;;2.53;;
76745;SDS011;65671;49.976;20.038;2023-04-03T12:46:09;6.00;;;3.10;;
76745;SDS011;65671;49.976;20.038;2023-04-03T12:48:30;4.55;;;1.95;;
76745;SDS011;65671;49.976;20.038;2023-04-03T12:50:59;7.22;;;2.40;;
76745;SDS011;65671;49.976;20.038;2023-04-03T12:53:31;3.60;;;2.35;;
76745;SDS011;65671;49.976;20.038;2023-04-03T12:58:55;4.03;;;2.20;;
76745;SDS011;65671;49.976;20.038;2023-04-03T13:01:38;3.53;;;1.83;;
76745;SDS011;65671;49.976;20.038;2023-04-03T13:06:30;3.85;;;2.38;;
76745;SDS011;65671;49.976;20.038;2023-04-03T13:09:03;4.82;;;2.03;;
76745;SDS011;65671;49.976;20.038;2023-04-03T13:11:36;5.32;;;2.20;;
76745;SDS011;65671;49.976;20.038;2023-04-03T13:14:14;5.32;;;2.50;;
76745;SDS011;65671;49.976;20.038;2023-04-03T13:16:52;3.70;;;1.83;;
76745;SDS011;65671;49.976;20.038;2023-04-03T13:19:19;4.18;;;2.33;;
76745;SDS011;65671;49.976;20.038;2023-04-03T13:24:11;4.22;;;2.00;;
76745;SDS011;65671;49.976;20.038;2023-04-03T13:26:37;5.97;;;2.50;;
76745;SDS011;65671;49.976;20.038;2023-04-03T13:29:05;3.97;;;2.20;;
76745;SDS011;65671;49.976;20.038;2023-04-03T13:31:44;4.65;;;2.45;;
76745;SDS011;65671;49.976;20.038;2023-04-03T13:36:46;3.60;;;1.95;;
76745;SDS011;65671;49.976;20.038;2023-04-03T13:39:23;3.55;;;2.20;;
76745;SDS011;65671;49.976;20.038;2023-04-03T13:41:56;6.45;;;2.90;;
76745;SDS011;65671;49.976;20.038;2023-04-03T13:44:41;3.50;;;2.00;;
76745;SDS011;65671;49.976;20.038;2023-04-03T13:49:40;2.95;;;1.73;;
76745;SDS011;65671;49.976;20.038;2023-04-03T13:55:16;5.28;;;2.50;;
76745;SDS011;65671;49.976;20.038;2023-04-03T13:57:52;4.30;;;2.05;;
76745;SDS011;65671;49.976;20.038;2023-04-03T14:00:29;3.40;;;2.05;;
76745;SDS011;65671;49.976;20.038;2023-04-03T14:02:56;3.92;;;2.10;;
76745;SDS011;65671;49.976;20.038;2023-04-03T14:05:22;5.63;;;1.98;;
76745;SDS011;65671;49.976;20.038;2023-04-03T14:07:50;3.70;;;1.98;;
76745;SDS011;65671;49.976;20.038;2023-04-03T14:10:16;8.40;;;2.15;;
76745;SDS011;65671;49.976;20.038;2023-04-03T14:12:42;4.15;;;2.22;;
76745;SDS011;65671;49.976;20.038;2023-04-03T14:18:04;3.78;;;2.20;;
76745;SDS011;65671;49.976;20.038;2023-04-03T14:20:29;5.32;;;2.05;;
76745;SDS011;65671;49.976;20.038;2023-04-03T14:25:21;3.45;;;2.22;;
76745;SDS011;65671;49.976;20.038;2023-04-03T14:27:52;9.30;;;2.55;;
76745;SDS011;65671;49.976;20.038;2023-04-03T14:30:26;5.35;;;2.20;;
76745;SDS011;65671;49.976;20.038;2023-04-03T14:32:55;4.80;;;2.17;;
76745;SDS011;65671;49.976;20.038;2023-04-03T14:35:20;3.05;;;1.83;;
76745;SDS011;65671;49.976;20.038;2023-04-03T14:40:13;4.85;;;2.17;;
76745;SDS011;65671;49.976;20.038;2023-04-03T14:42:41;5.45;;;2.40;;
76745;SDS011;65671;49.976;20.038;2023-04-03T14:47:33;2.78;;;2.03;;
76745;SDS011;65671;49.976;20.038;2023-04-03T14:50:11;5.07;;;2.17;;
76745;SDS011;65671;49.976;20.038;2023-04-03T14:52:40;4.07;;;2.10;;
76745;SDS011;65671;49.976;20.038;2023-04-03T14:55:06;6.50;;;3.33;;
76745;SDS011;65671;49.976;20.038;2023-04-03T14:57:32;5.30;;;2.47;;
76745;SDS011;65671;49.976;20.038;2023-04-03T14:59:58;4.50;;;2.47;;
76745;SDS011;65671;49.976;20.038;2023-04-03T15:02:27;4.57;;;2.08;;
76745;SDS011;65671;49.976;20.038;2023-04-03T15:04:58;6.47;;;2.47;;
76745;SDS011;65671;49.976;20.038;2023-04-03T15:07:26;2.92;;;2.15;;
76745;SDS011;65671;49.976;20.038;2023-04-03T15:09:54;2.65;;;1.75;;
76745;SDS011;65671;49.976;20.038;2023-04-03T15:12:22;4.10;;;2.38;;
76745;SDS011;65671;49.976;20.038;2023-04-03T15:14:50;9.07;;;3.50;;
76745;SDS011;65671;49.976;20.038;2023-04-03T15:19:46;5.03;;;2.60;;
76745;SDS011;65671;49.976;20.038;2023-04-03T15:24:42;8.07;;;4.78;;
76745;SDS011;65671;49.976;20.038;2023-04-03T15:27:09;5.05;;;3.72;;
76745;SDS011;65671;49.976;20.038;2023-04-03T15:29:36;7.40;;;3.30;;
76745;SDS011;65671;49.976;20.038;2023-04-03T15:32:04;8.15;;;3.78;;
76745;SDS011;65671;49.976;20.038;2023-04-03T15:34:30;10.82;;;4.30;;
76745;SDS011;65671;49.976;20.038;2023-04-03T15:39:24;10.32;;;5.05;;
76745;SDS011;65671;49.976;20.038;2023-04-03T15:41:50;7.57;;;3.78;;
76745;SDS011;65671;49.976;20.038;2023-04-03T15:44:17;7.65;;;3.90;;
76745;SDS011;65671;49.976;20.038;2023-04-03T15:46:44;14.07;;;4.22;;
76745;SDS011;65671;49.976;20.038;2023-04-03T15:49:10;6.18;;;3.42;;
76745;SDS011;65671;49.976;20.038;2023-04-03T15:51:37;13.43;;;8.55;;
76745;SDS011;65671;49.976;20.038;2023-04-03T15:56:30;6.65;;;2.92;;
76745;SDS011;65671;49.976;20.038;2023-04-03T16:01:21;3.63;;;2.33;;
76745;SDS011;65671;49.976;20.038;2023-04-03T16:06:13;5.05;;;2.80;;
76745;SDS011;65671;49.976;20.038;2023-04-03T16:08:41;5.32;;;2.53;;
76745;SDS011;65671;49.976;20.038;2023-04-03T16:11:07;4.57;;;1.95;;
76745;SDS011;65671;49.976;20.038;2023-04-03T16:13:33;4.90;;;2.03;;
76745;SDS011;65671;49.976;20.038;2023-04-03T16:18:26;6.10;;;2.70;;
76745;SDS011;65671;49.976;20.038;2023-04-03T16:20:53;5.72;;;2.65;;
76745;SDS011;65671;49.976;20.038;2023-04-03T16:25:45;6.22;;;2.40;;
76745;SDS011;65671;49.976;20.038;2023-04-03T16:28:12;5.45;;;2.08;;
76745;SDS011;65671;49.976;20.038;2023-04-03T16:30:41;4.05;;;2.10;;
76745;SDS011;65671;49.976;20.038;2023-04-03T16:33:08;4.55;;;2.05;;
76745;SDS011;65671;49.976;20.038;2023-04-03T16:35:35;4.95;;;2.58;;
76745;SDS011;65671;49.976;20.038;2023-04-03T16:38:01;4.30;;;2.28;;
76745;SDS011;65671;49.976;20.038;2023-04-03T16:42:52;3.25;;;2.03;;
76745;SDS011;65671;49.976;20.038;2023-04-03T16:47:43;4.33;;;2.27;;
76745;SDS011;65671;49.976;20.038;2023-04-03T16:50:09;7.03;;;2.80;;
76745;SDS011;65671;49.976;20.038;2023-04-03T16:55:00;3.22;;;1.92;;
76745;SDS011;65671;49.976;20.038;2023-04-03T16:59:51;3.37;;;1.43;;
76745;SDS011;65671;49.976;20.038;2023-04-03T17:02:18;5.20;;;1.83;;
76745;SDS011;65671;49.976;20.038;2023-04-03T17:04:44;3.33;;;2.08;;
76745;SDS011;65671;49.976;20.038;2023-04-03T17:09:35;2.80;;;2.00;;
76745;SDS011;65671;49.976;20.038;2023-04-03T17:14:26;5.75;;;2.90;;
76745;SDS011;65671;49.976;20.038;2023-04-03T17:19:17;6.63;;;2.00;;
76745;SDS011;65671;49.976;20.038;2023-04-03T17:24:10;3.40;;;1.88;;
76745;SDS011;65671;49.976;20.038;2023-04-03T17:26:37;3.03;;;1.50;;
76745;SDS011;65671;49.976;20.038;2023-04-03T17:29:04;5.68;;;2.78;;
76745;SDS011;65671;49.976;20.038;2023-04-03T17:33:56;5.40;;;2.60;;
76745;SDS011;65671;49.976;20.038;2023-04-03T17:38:49;6.05;;;1.95;;
76745;SDS011;65671;49.976;20.038;2023-04-03T17:41:16;5.07;;;2.75;;
76745;SDS011;65671;49.976;20.038;2023-04-03T17:43:41;6.90;;;2.58;;
76745;SDS011;65671;49.976;20.038;2023-04-03T17:48:36;5.00;;;2.63;;
76745;SDS011;65671;49.976;20.038;2023-04-03T17:51:07;6.55;;;2.58;;
76745;SDS011;65671;49.976;20.038;2023-04-03T17:53:35;4.40;;;2.78;;
76745;SDS011;65671;49.976;20.038;2023-04-03T17:58:47;6.45;;;2.60;;
76745;SDS011;65671;49.976;20.038;2023-04-03T18:01:15;5.05;;;2.88;;
76745;SDS011;65671;49.976;20.038;2023-04-03T18:03:44;5.20;;;2.80;;
76745;SDS011;65671;49.976;20.038;2023-04-03T18:06:12;5.70;;;2.97;;
76745;SDS011;65671;49.976;20.038;2023-04-03T18:08:41;7.93;;;3.08;;
76745;SDS011;65671;49.976;20.038;2023-04-03T18:11:13;5.40;;;2.80;;
76745;SDS011;65671;49.976;20.038;2023-04-03T18:13:39;5.20;;;2.88;;
76745;SDS011;65671;49.976;20.038;2023-04-03T18:16:06;8.70;;;3.55;;
76745;SDS011;65671;49.976;20.038;2023-04-03T18:18:33;9.45;;;3.80;;
76745;SDS011;65671;49.976;20.038;2023-04-03T18:23:25;6.75;;;3.83;;
76745;SDS011;65671;49.976;20.038;2023-04-03T18:25:55;8.05;;;3.83;;
76745;SDS011;65671;49.976;20.038;2023-04-03T18:28:21;8.48;;;3.25;;
76745;SDS011;65671;49.976;20.038;2023-04-03T18:33:13;5.90;;;3.42;;
76745;SDS011;65671;49.976;20.038;2023-04-03T18:38:04;3.03;;;2.10;;
76745;SDS011;65671;49.976;20.038;2023-04-03T18:42:57;6.15;;;2.75;;
76745;SDS011;65671;49.976;20.038;2023-04-03T18:45:24;4.78;;;3.10;;
76745;SDS011;65671;49.976;20.038;2023-04-03T18:50:15;7.15;;;3.03;;
76745;SDS011;65671;49.976;20.038;2023-04-03T18:52:42;5.85;;;3.03;;
76745;SDS011;65671;49.976;20.038;2023-04-03T18:57:35;6.00;;;3.30;;
76745;SDS011;65671;49.976;20.038;2023-04-03T19:02:28;7.53;;;3.00;;
76745;SDS011;65671;49.976;20.038;2023-04-03T19:07:20;6.32;;;3.30;;
76745;SDS011;65671;49.976;20.038;2023-04-03T19:09:46;6.85;;;3.38;;
76745;SDS011;65671;49.976;20.038;2023-04-03T19:14:38;5.90;;;3.13;;
76745;SDS011;65671;49.976;20.038;2023-04-03T19:17:03;6.30;;;3.65;;
76745;SDS011;65671;49.976;20.038;2023-04-03T19:19:31;8.95;;;4.15;;
76745;SDS011;65671;49.976;20.038;2023-04-03T19:24:22;8.55;;;3.83;;
76745;SDS011;65671;49.976;20.038;2023-04-03T19:29:13;5.93;;;3.13;;
76745;SDS011;65671;49.976;20.038;2023-04-03T19:34:05;8.15;;;3.80;;
76745;SDS011;65671;49.976;20.038;2023-04-03T19:36:32;8.07;;;3.63;;
76745;SDS011;65671;49.976;20.038;2023-04-03T19:38:58;7.05;;;4.05;;
76745;SDS011;65671;49.976;20.038;2023-04-03T19:43:51;8.90;;;4.00;;
76745;SDS011;65671;49.976;20.038;2023-04-03T19:46:22;8.35;;;4.00;;
76745;SDS011;65671;49.976;20.038;2023-04-03T19:48:50;9.40;;;3.53;;
76745;SDS011;65671;49.976;20.038;2023-04-03T19:53:41;11.20;;;4.90;;
76745;SDS011;65671;49.976;20.038;2023-04-03T19:58:32;6.97;;;3.30;;
76745;SDS011;65671;49.976;20.038;2023-04-03T20:03:25;7.05;;;3.83;;
76745;SDS011;65671;49.976;20.038;2023-04-03T20:05:51;10.93;;;4.78;;
76745;SDS011;65671;49.976;20.038;2023-04-03T20:08:18;9.60;;;3.78;;